sensor_id;sensor_type;location;lat;lon;timestamp;P1;durP1;ratioP1;P2;durP2;ratioP2
55015;SDS011;40919;43.236;21.590;2022-12-24T06:07:06;178.57;;;89.72;;
55015;SDS011;40919;43.236;21.590;2022-12-24T09:14:21;75.30;;;52.03;;
55015;SDS011;40919;43.236;21.590;2022-12-24T09:17:07;65.63;;;47.25;;
55015;SDS011;40919;43.236;21.590;2022-12-24T09:19:33;60.22;;;43.70;;
55015;SDS011;40919;43.236;21.590;2022-12-24T09:21:59;63.83;;;47.30;;
55015;SDS011;40919;43.236;21.590;2022-12-24T09:24:24;80.38;;;50.17;;
55015;SDS011;40919;43.236;21.590;2022-12-24T09:26:50;71.97;;;50.40;;
55015;SDS011;40919;43.236;21.590;2022-12-24T09:29:17;75.82;;;50.28;;
55015;SDS011;40919;43.236;21.590;2022-12-24T09:31:43;79.68;;;52.70;;
55015;SDS011;40919;43.236;21.590;2022-12-24T09:34:08;71.88;;;46.50;;
55015;SDS011;40919;43.236;21.590;2022-12-24T09:36:34;66.03;;;46.30;;
55015;SDS011;40919;43.236;21.590;2022-12-24T09:39:00;69.97;;;47.92;;
55015;SDS011;40919;43.236;21.590;2022-12-24T09:44:13;86.20;;;59.92;;
55015;SDS011;40919;43.236;21.590;2022-12-24T09:46:49;74.38;;;52.40;;
55015;SDS011;40919;43.236;21.590;2022-12-24T09:49:19;71.85;;;49.80;;
55015;SDS011;40919;43.236;21.590;2022-12-24T09:51:51;59.42;;;41.95;;
55015;SDS011;40919;43.236;21.590;2022-12-24T09:54:28;66.63;;;50.45;;
55015;SDS011;40919;43.236;21.590;2022-12-24T09:57:00;67.97;;;50.33;;
55015;SDS011;40919;43.236;21.590;2022-12-24T09:59:43;67.63;;;47.08;;
55015;SDS011;40919;43.236;21.590;2022-12-24T10:02:12;79.18;;;54.28;;
55015;SDS011;40919;43.236;21.590;2022-12-24T10:04:40;83.05;;;55.72;;
55015;SDS011;40919;43.236;21.590;2022-12-24T10:15:27;100.72;;;69.63;;
55015;SDS011;40919;43.236;21.590;2022-12-24T10:18:06;88.10;;;64.68;;
55015;SDS011;40919;43.236;21.590;2022-12-24T10:24:14;115.90;;;81.55;;
55015;SDS011;40919;43.236;21.590;2022-12-24T10:27:23;107.60;;;79.38;;
55015;SDS011;40919;43.236;21.590;2022-12-24T10:29:36;166.43;;;111.20;;
55015;SDS011;40919;43.236;21.590;2022-12-24T10:34:42;157.57;;;110.70;;
55015;SDS011;40919;43.236;21.590;2022-12-24T10:37:20;169.57;;;118.07;;
55015;SDS011;40919;43.236;21.590;2022-12-24T10:39:48;146.60;;;107.63;;
55015;SDS011;40919;43.236;21.590;2022-12-24T10:42:14;127.30;;;92.50;;
55015;SDS011;40919;43.236;21.590;2022-12-24T10:44:41;78.18;;;57.85;;
55015;SDS011;40919;43.236;21.590;2022-12-24T10:47:13;78.00;;;47.55;;
55015;SDS011;40919;43.236;21.590;2022-12-24T10:49:45;57.78;;;37.50;;
55015;SDS011;40919;43.236;21.590;2022-12-24T10:52:20;48.17;;;32.35;;
55015;SDS011;40919;43.236;21.590;2022-12-24T10:57:36;59.45;;;38.35;;
55015;SDS011;40919;43.236;21.590;2022-12-24T11:00:03;52.88;;;37.05;;
55015;SDS011;40919;43.236;21.590;2022-12-24T11:02:32;59.67;;;40.30;;
55015;SDS011;40919;43.236;21.590;2022-12-24T11:05:44;60.50;;;43.05;;
55015;SDS011;40919;43.236;21.590;2022-12-24T11:10:28;41.90;;;31.50;;
55015;SDS011;40919;43.236;21.590;2022-12-24T11:12:55;42.83;;;29.55;;
55015;SDS011;40919;43.236;21.590;2022-12-24T11:15:22;44.55;;;33.95;;
55015;SDS011;40919;43.236;21.590;2022-12-24T11:18:03;75.55;;;47.88;;
55015;SDS011;40919;43.236;21.590;2022-12-24T11:20:36;61.20;;;41.70;;
55015;SDS011;40919;43.236;21.590;2022-12-24T11:23:02;53.97;;;38.42;;
55015;SDS011;40919;43.236;21.590;2022-12-24T11:25:30;57.25;;;39.40;;
55015;SDS011;40919;43.236;21.590;2022-12-24T11:28:10;61.72;;;45.60;;
55015;SDS011;40919;43.236;21.590;2022-12-24T11:30:42;68.82;;;48.25;;
55015;SDS011;40919;43.236;21.590;2022-12-24T11:33:19;70.30;;;48.20;;
55015;SDS011;40919;43.236;21.590;2022-12-24T11:35:47;81.75;;;59.58;;
55015;SDS011;40919;43.236;21.590;2022-12-24T11:38:22;78.80;;;60.92;;
55015;SDS011;40919;43.236;21.590;2022-12-24T11:41:07;83.28;;;59.78;;
55015;SDS011;40919;43.236;21.590;2022-12-24T11:43:39;76.93;;;54.08;;
55015;SDS011;40919;43.236;21.590;2022-12-24T11:46:11;74.97;;;53.55;;
55015;SDS011;40919;43.236;21.590;2022-12-24T11:48:45;70.10;;;52.55;;
55015;SDS011;40919;43.236;21.590;2022-12-24T11:51:19;87.00;;;63.88;;
55015;SDS011;40919;43.236;21.590;2022-12-24T11:53:50;122.57;;;87.70;;
55015;SDS011;40919;43.236;21.590;2022-12-24T11:56:34;135.13;;;96.07;;
55015;SDS011;40919;43.236;21.590;2022-12-24T11:59:21;147.13;;;101.63;;
55015;SDS011;40919;43.236;21.590;2022-12-24T12:04:56;100.35;;;71.60;;
55015;SDS011;40919;43.236;21.590;2022-12-24T12:07:25;97.13;;;71.90;;
55015;SDS011;40919;43.236;21.590;2022-12-24T12:12:24;90.00;;;64.50;;
55015;SDS011;40919;43.236;21.590;2022-12-24T12:14:57;91.97;;;65.70;;
55015;SDS011;40919;43.236;21.590;2022-12-24T12:17:35;90.82;;;68.03;;
55015;SDS011;40919;43.236;21.590;2022-12-24T12:22:52;106.13;;;74.68;;
55015;SDS011;40919;43.236;21.590;2022-12-24T12:25:21;140.13;;;96.47;;
55015;SDS011;40919;43.236;21.590;2022-12-24T12:27:51;162.15;;;110.25;;
55015;SDS011;40919;43.236;21.590;2022-12-24T12:30:20;198.60;;;126.97;;
55015;SDS011;40919;43.236;21.590;2022-12-24T12:35:44;214.70;;;144.15;;
55015;SDS011;40919;43.236;21.590;2022-12-24T12:38:22;218.52;;;140.95;;
55015;SDS011;40919;43.236;21.590;2022-12-24T12:47:07;225.98;;;147.73;;
55015;SDS011;40919;43.236;21.590;2022-12-24T12:57:48;240.98;;;160.43;;
55015;SDS011;40919;43.236;21.590;2022-12-24T13:00:16;239.35;;;162.90;;
55015;SDS011;40919;43.236;21.590;2022-12-24T13:07:50;282.98;;;180.88;;
55015;SDS011;40919;43.236;21.590;2022-12-24T13:18:59;245.27;;;147.32;;
55015;SDS011;40919;43.236;21.590;2022-12-24T13:21:30;172.68;;;115.30;;
55015;SDS011;40919;43.236;21.590;2022-12-24T13:24:11;173.43;;;115.47;;
55015;SDS011;40919;43.236;21.590;2022-12-24T13:26:39;157.63;;;109.82;;
55015;SDS011;40919;43.236;21.590;2022-12-24T13:34:46;191.43;;;112.65;;
55015;SDS011;40919;43.236;21.590;2022-12-24T13:37:35;190.85;;;117.03;;
55015;SDS011;40919;43.236;21.590;2022-12-24T13:42:49;156.95;;;99.65;;
55015;SDS011;40919;43.236;21.590;2022-12-24T13:53:42;217.25;;;144.98;;
55015;SDS011;40919;43.236;21.590;2022-12-24T13:58:46;243.23;;;162.40;;
55015;SDS011;40919;43.236;21.590;2022-12-24T14:01:18;238.50;;;160.77;;
55015;SDS011;40919;43.236;21.590;2022-12-24T14:03:51;194.23;;;129.98;;
55015;SDS011;40919;43.236;21.590;2022-12-24T14:06:28;177.95;;;123.15;;
55015;SDS011;40919;43.236;21.590;2022-12-24T14:09:29;130.98;;;93.22;;
55015;SDS011;40919;43.236;21.590;2022-12-24T14:14:26;100.47;;;73.22;;
55015;SDS011;40919;43.236;21.590;2022-12-24T14:16:57;84.55;;;63.33;;
55015;SDS011;40919;43.236;21.590;2022-12-24T14:19:42;82.40;;;56.85;;
55015;SDS011;40919;43.236;21.590;2022-12-24T14:22:35;65.03;;;47.05;;
55015;SDS011;40919;43.236;21.590;2022-12-24T14:25:12;73.68;;;49.50;;
55015;SDS011;40919;43.236;21.590;2022-12-24T14:27:44;67.38;;;47.40;;
55015;SDS011;40919;43.236;21.590;2022-12-24T14:30:23;67.15;;;47.95;;
55015;SDS011;40919;43.236;21.590;2022-12-24T14:32:53;134.23;;;93.00;;
55015;SDS011;40919;43.236;21.590;2022-12-24T14:35:20;171.43;;;122.55;;
55015;SDS011;40919;43.236;21.590;2022-12-24T14:37:51;183.77;;;130.38;;
55015;SDS011;40919;43.236;21.590;2022-12-24T14:40:27;193.82;;;138.40;;
55015;SDS011;40919;43.236;21.590;2022-12-24T14:43:00;127.40;;;93.03;;
55015;SDS011;40919;43.236;21.590;2022-12-24T14:56:34;95.65;;;67.25;;
55015;SDS011;40919;43.236;21.590;2022-12-24T14:59:02;87.18;;;66.32;;
55015;SDS011;40919;43.236;21.590;2022-12-24T15:01:39;170.65;;;117.35;;
55015;SDS011;40919;43.236;21.590;2022-12-24T15:06:41;181.18;;;129.50;;
55015;SDS011;40919;43.236;21.590;2022-12-24T15:09:16;168.05;;;121.50;;
55015;SDS011;40919;43.236;21.590;2022-12-24T15:11:46;153.82;;;108.43;;
55015;SDS011;40919;43.236;21.590;2022-12-24T15:14:13;129.95;;;97.63;;
55015;SDS011;40919;43.236;21.590;2022-12-24T15:16:40;100.47;;;74.63;;
55015;SDS011;40919;43.236;21.590;2022-12-24T15:19:18;95.22;;;72.20;;
55015;SDS011;40919;43.236;21.590;2022-12-24T15:21:48;101.53;;;76.38;;
55015;SDS011;40919;43.236;21.590;2022-12-24T15:24:30;113.88;;;83.00;;
55015;SDS011;40919;43.236;21.590;2022-12-24T15:27:01;124.15;;;92.13;;
55015;SDS011;40919;43.236;21.590;2022-12-24T15:29:41;110.47;;;79.25;;
55015;SDS011;40919;43.236;21.590;2022-12-24T15:32:10;124.97;;;88.22;;
55015;SDS011;40919;43.236;21.590;2022-12-24T15:34:41;140.07;;;101.68;;
55015;SDS011;40919;43.236;21.590;2022-12-24T15:39:35;244.70;;;188.30;;
55015;SDS011;40919;43.236;21.590;2022-12-24T15:42:03;206.77;;;128.30;;
55015;SDS011;40919;43.236;21.590;2022-12-24T15:45:41;253.50;;;149.80;;
55015;SDS011;40919;43.236;21.590;2022-12-24T15:47:44;221.45;;;136.25;;
55015;SDS011;40919;43.236;21.590;2022-12-24T15:53:15;225.43;;;138.45;;
55015;SDS011;40919;43.236;21.590;2022-12-24T15:55:45;168.82;;;122.68;;
55015;SDS011;40919;43.236;21.590;2022-12-24T15:58:25;193.93;;;124.20;;
55015;SDS011;40919;43.236;21.590;2022-12-24T16:06:18;368.92;;;223.18;;
55015;SDS011;40919;43.236;21.590;2022-12-24T16:08:45;362.23;;;242.23;;
55015;SDS011;40919;43.236;21.590;2022-12-24T16:16:49;280.70;;;204.82;;
55015;SDS011;40919;43.236;21.590;2022-12-24T16:19:24;255.68;;;188.43;;
55015;SDS011;40919;43.236;21.590;2022-12-24T16:21:56;189.60;;;140.25;;
55015;SDS011;40919;43.236;21.590;2022-12-24T16:24:44;264.20;;;194.63;;
55015;SDS011;40919;43.236;21.590;2022-12-24T16:27:11;181.70;;;131.75;;
55015;SDS011;40919;43.236;21.590;2022-12-24T16:29:37;208.50;;;152.43;;
55015;SDS011;40919;43.236;21.590;2022-12-24T16:32:03;223.27;;;153.48;;
55015;SDS011;40919;43.236;21.590;2022-12-24T16:34:29;221.38;;;148.85;;
55015;SDS011;40919;43.236;21.590;2022-12-24T16:36:57;184.25;;;129.00;;
55015;SDS011;40919;43.236;21.590;2022-12-24T16:39:24;181.07;;;128.75;;
55015;SDS011;40919;43.236;21.590;2022-12-24T16:41:53;170.90;;;121.93;;
55015;SDS011;40919;43.236;21.590;2022-12-24T16:44:38;181.48;;;132.02;;
55015;SDS011;40919;43.236;21.590;2022-12-24T16:47:06;208.13;;;148.25;;
55015;SDS011;40919;43.236;21.590;2022-12-24T16:49:44;203.60;;;145.50;;
55015;SDS011;40919;43.236;21.590;2022-12-24T16:52:18;191.57;;;138.25;;
55015;SDS011;40919;43.236;21.590;2022-12-24T16:54:48;208.25;;;152.52;;
55015;SDS011;40919;43.236;21.590;2022-12-24T16:57:14;204.43;;;150.70;;
55015;SDS011;40919;43.236;21.590;2022-12-24T16:59:40;245.65;;;180.40;;
55015;SDS011;40919;43.236;21.590;2022-12-24T17:02:05;242.15;;;176.32;;
55015;SDS011;40919;43.236;21.590;2022-12-24T17:04:32;228.63;;;165.40;;
55015;SDS011;40919;43.236;21.590;2022-12-24T17:06:58;250.80;;;183.18;;
55015;SDS011;40919;43.236;21.590;2022-12-24T17:09:24;211.55;;;159.23;;
55015;SDS011;40919;43.236;21.590;2022-12-24T17:11:50;217.07;;;158.95;;
55015;SDS011;40919;43.236;21.590;2022-12-24T17:14:16;208.18;;;148.40;;
55015;SDS011;40919;43.236;21.590;2022-12-24T17:16:41;218.52;;;157.30;;
55015;SDS011;40919;43.236;21.590;2022-12-24T17:19:07;229.88;;;163.25;;
55015;SDS011;40919;43.236;21.590;2022-12-24T17:21:33;229.65;;;155.70;;
55015;SDS011;40919;43.236;21.590;2022-12-24T17:23:59;251.70;;;170.35;;
55015;SDS011;40919;43.236;21.590;2022-12-24T17:26:25;230.38;;;157.52;;
55015;SDS011;40919;43.236;21.590;2022-12-24T17:28:52;272.33;;;189.27;;
55015;SDS011;40919;43.236;21.590;2022-12-24T17:31:19;245.55;;;173.32;;
55015;SDS011;40919;43.236;21.590;2022-12-24T17:33:47;296.88;;;197.40;;
55015;SDS011;40919;43.236;21.590;2022-12-24T17:36:14;288.58;;;190.07;;
55015;SDS011;40919;43.236;21.590;2022-12-24T17:38:40;252.82;;;175.48;;
55015;SDS011;40919;43.236;21.590;2022-12-24T17:41:07;212.23;;;149.60;;
55015;SDS011;40919;43.236;21.590;2022-12-24T17:43:36;241.05;;;169.07;;
55015;SDS011;40919;43.236;21.590;2022-12-24T17:46:02;229.35;;;158.82;;
55015;SDS011;40919;43.236;21.590;2022-12-24T17:48:30;245.57;;;165.98;;
55015;SDS011;40919;43.236;21.590;2022-12-24T17:50:56;229.15;;;160.60;;
55015;SDS011;40919;43.236;21.590;2022-12-24T17:53:21;233.80;;;168.05;;
55015;SDS011;40919;43.236;21.590;2022-12-24T17:55:47;223.35;;;158.15;;
55015;SDS011;40919;43.236;21.590;2022-12-24T17:58:13;234.25;;;166.02;;
55015;SDS011;40919;43.236;21.590;2022-12-24T18:00:39;245.05;;;172.73;;
55015;SDS011;40919;43.236;21.590;2022-12-24T18:03:05;241.40;;;177.45;;
55015;SDS011;40919;43.236;21.590;2022-12-24T18:05:34;261.30;;;192.15;;
55015;SDS011;40919;43.236;21.590;2022-12-24T18:08:00;262.40;;;191.65;;
55015;SDS011;40919;43.236;21.590;2022-12-24T18:10:26;271.55;;;193.70;;
55015;SDS011;40919;43.236;21.590;2022-12-24T18:12:52;283.45;;;206.35;;
55015;SDS011;40919;43.236;21.590;2022-12-24T18:15:18;262.90;;;194.63;;
55015;SDS011;40919;43.236;21.590;2022-12-24T18:17:52;233.77;;;171.35;;
55015;SDS011;40919;43.236;21.590;2022-12-24T18:20:20;229.82;;;167.43;;
55015;SDS011;40919;43.236;21.590;2022-12-24T18:22:46;213.30;;;158.52;;
55015;SDS011;40919;43.236;21.590;2022-12-24T18:25:12;213.23;;;154.88;;
55015;SDS011;40919;43.236;21.590;2022-12-24T18:27:38;195.00;;;144.82;;
55015;SDS011;40919;43.236;21.590;2022-12-24T18:30:05;169.85;;;124.30;;
55015;SDS011;40919;43.236;21.590;2022-12-24T18:32:33;126.10;;;97.22;;
55015;SDS011;40919;43.236;21.590;2022-12-24T18:34:59;112.00;;;87.60;;
55015;SDS011;40919;43.236;21.590;2022-12-24T18:37:24;109.50;;;84.90;;
55015;SDS011;40919;43.236;21.590;2022-12-24T18:39:50;108.57;;;82.13;;
55015;SDS011;40919;43.236;21.590;2022-12-24T18:42:16;117.00;;;87.85;;
55015;SDS011;40919;43.236;21.590;2022-12-24T18:44:42;120.13;;;90.88;;
55015;SDS011;40919;43.236;21.590;2022-12-24T18:47:08;128.93;;;93.07;;
55015;SDS011;40919;43.236;21.590;2022-12-24T18:49:34;117.28;;;86.65;;
55015;SDS011;40919;43.236;21.590;2022-12-24T18:52:05;110.43;;;79.07;;
55015;SDS011;40919;43.236;21.590;2022-12-24T18:54:33;131.48;;;97.05;;
55015;SDS011;40919;43.236;21.590;2022-12-24T18:56:59;339.33;;;246.25;;
55015;SDS011;40919;43.236;21.590;2022-12-24T18:59:25;460.08;;;321.13;;
55015;SDS011;40919;43.236;21.590;2022-12-24T19:01:50;569.58;;;390.35;;
55015;SDS011;40919;43.236;21.590;2022-12-24T19:04:16;417.23;;;295.17;;
55015;SDS011;40919;43.236;21.590;2022-12-24T19:06:42;431.48;;;314.10;;
55015;SDS011;40919;43.236;21.590;2022-12-24T19:09:08;416.73;;;315.75;;
55015;SDS011;40919;43.236;21.590;2022-12-24T19:11:35;347.13;;;264.50;;
55015;SDS011;40919;43.236;21.590;2022-12-24T19:14:03;349.63;;;273.20;;
55015;SDS011;40919;43.236;21.590;2022-12-24T19:16:33;277.92;;;217.45;;
55015;SDS011;40919;43.236;21.590;2022-12-24T19:19:01;272.75;;;202.77;;
55015;SDS011;40919;43.236;21.590;2022-12-24T19:21:28;273.52;;;199.57;;
55015;SDS011;40919;43.236;21.590;2022-12-24T19:23:54;253.32;;;187.90;;
55015;SDS011;40919;43.236;21.590;2022-12-24T19:26:20;251.43;;;186.68;;
55015;SDS011;40919;43.236;21.590;2022-12-24T19:28:46;258.35;;;190.30;;
55015;SDS011;40919;43.236;21.590;2022-12-24T19:31:17;360.90;;;263.30;;
55015;SDS011;40919;43.236;21.590;2022-12-24T19:33:45;394.20;;;276.58;;
55015;SDS011;40919;43.236;21.590;2022-12-24T19:36:14;386.40;;;282.08;;
55015;SDS011;40919;43.236;21.590;2022-12-24T19:38:44;410.25;;;284.20;;
55015;SDS011;40919;43.236;21.590;2022-12-24T19:41:12;363.15;;;259.90;;
55015;SDS011;40919;43.236;21.590;2022-12-24T19:43:39;331.83;;;238.27;;
55015;SDS011;40919;43.236;21.590;2022-12-24T19:46:07;300.80;;;213.70;;
55015;SDS011;40919;43.236;21.590;2022-12-24T19:48:34;259.38;;;189.25;;
55015;SDS011;40919;43.236;21.590;2022-12-24T19:51:00;251.23;;;179.82;;
55015;SDS011;40919;43.236;21.590;2022-12-24T19:53:27;188.70;;;134.32;;
55015;SDS011;40919;43.236;21.590;2022-12-24T19:55:53;160.95;;;116.35;;
55015;SDS011;40919;43.236;21.590;2022-12-24T19:58:19;213.15;;;134.68;;
55015;SDS011;40919;43.236;21.590;2022-12-24T20:00:44;194.75;;;129.27;;
55015;SDS011;40919;43.236;21.590;2022-12-24T20:03:10;174.05;;;117.43;;
55015;SDS011;40919;43.236;21.590;2022-12-24T20:05:39;156.73;;;113.70;;
55015;SDS011;40919;43.236;21.590;2022-12-24T20:08:05;138.88;;;103.35;;
55015;SDS011;40919;43.236;21.590;2022-12-24T20:10:31;124.65;;;89.68;;
55015;SDS011;40919;43.236;21.590;2022-12-24T20:12:56;216.35;;;151.10;;
55015;SDS011;40919;43.236;21.590;2022-12-24T20:15:22;191.70;;;130.60;;
55015;SDS011;40919;43.236;21.590;2022-12-24T20:17:48;343.45;;;238.13;;
55015;SDS011;40919;43.236;21.590;2022-12-24T20:20:16;280.42;;;202.38;;
55015;SDS011;40919;43.236;21.590;2022-12-24T20:22:42;368.55;;;262.88;;
55015;SDS011;40919;43.236;21.590;2022-12-24T20:25:08;396.50;;;279.85;;
55015;SDS011;40919;43.236;21.590;2022-12-24T20:27:34;401.90;;;285.48;;
55015;SDS011;40919;43.236;21.590;2022-12-24T20:30:00;410.20;;;297.75;;
55015;SDS011;40919;43.236;21.590;2022-12-24T20:32:26;406.98;;;291.63;;
55015;SDS011;40919;43.236;21.590;2022-12-24T20:34:51;339.92;;;249.23;;
55015;SDS011;40919;43.236;21.590;2022-12-24T20:37:17;285.00;;;213.90;;
55015;SDS011;40919;43.236;21.590;2022-12-24T20:39:43;271.63;;;194.60;;
55015;SDS011;40919;43.236;21.590;2022-12-24T20:42:09;276.17;;;200.65;;
55015;SDS011;40919;43.236;21.590;2022-12-24T20:44:35;317.83;;;227.60;;
55015;SDS011;40919;43.236;21.590;2022-12-24T20:47:01;346.27;;;262.20;;
55015;SDS011;40919;43.236;21.590;2022-12-24T20:49:27;393.02;;;291.08;;
55015;SDS011;40919;43.236;21.590;2022-12-24T20:51:53;411.35;;;294.23;;
55015;SDS011;40919;43.236;21.590;2022-12-24T20:54:18;439.85;;;312.90;;
55015;SDS011;40919;43.236;21.590;2022-12-24T20:56:45;399.58;;;286.73;;
55015;SDS011;40919;43.236;21.590;2022-12-24T20:59:11;348.13;;;256.90;;
55015;SDS011;40919;43.236;21.590;2022-12-24T21:01:37;308.30;;;229.38;;
55015;SDS011;40919;43.236;21.590;2022-12-24T21:04:03;278.10;;;206.20;;
55015;SDS011;40919;43.236;21.590;2022-12-24T21:06:31;331.10;;;244.77;;
55015;SDS011;40919;43.236;21.590;2022-12-24T21:08:58;302.85;;;230.65;;
55015;SDS011;40919;43.236;21.590;2022-12-24T21:11:24;276.77;;;212.30;;
55015;SDS011;40919;43.236;21.590;2022-12-24T21:14:09;320.33;;;235.57;;
55015;SDS011;40919;43.236;21.590;2022-12-24T21:16:36;438.98;;;328.40;;
55015;SDS011;40919;43.236;21.590;2022-12-24T21:19:03;462.67;;;322.65;;
55015;SDS011;40919;43.236;21.590;2022-12-24T21:21:29;375.35;;;261.02;;
55015;SDS011;40919;43.236;21.590;2022-12-24T21:23:56;326.80;;;221.88;;
55015;SDS011;40919;43.236;21.590;2022-12-24T21:26:22;262.98;;;184.35;;
55015;SDS011;40919;43.236;21.590;2022-12-24T21:28:48;231.90;;;159.32;;
55015;SDS011;40919;43.236;21.590;2022-12-24T21:31:14;254.63;;;166.38;;
55015;SDS011;40919;43.236;21.590;2022-12-24T21:33:41;259.75;;;184.35;;
55015;SDS011;40919;43.236;21.590;2022-12-24T21:36:07;260.58;;;196.50;;
55015;SDS011;40919;43.236;21.590;2022-12-24T21:38:34;245.52;;;176.30;;
55015;SDS011;40919;43.236;21.590;2022-12-24T21:41:01;211.90;;;151.73;;
55015;SDS011;40919;43.236;21.590;2022-12-24T21:43:29;207.75;;;148.02;;
55015;SDS011;40919;43.236;21.590;2022-12-24T21:45:55;212.38;;;147.32;;
55015;SDS011;40919;43.236;21.590;2022-12-24T21:48:22;207.93;;;144.65;;
55015;SDS011;40919;43.236;21.590;2022-12-24T21:51:07;208.45;;;142.82;;
55015;SDS011;40919;43.236;21.590;2022-12-24T21:53:33;181.40;;;121.10;;
55015;SDS011;40919;43.236;21.590;2022-12-24T21:56:17;149.75;;;102.03;;
55015;SDS011;40919;43.236;21.590;2022-12-24T21:58:44;154.75;;;100.13;;
55015;SDS011;40919;43.236;21.590;2022-12-24T22:01:10;197.77;;;135.20;;
55015;SDS011;40919;43.236;21.590;2022-12-24T22:03:36;176.73;;;124.80;;
55015;SDS011;40919;43.236;21.590;2022-12-24T22:06:03;150.50;;;104.50;;
55015;SDS011;40919;43.236;21.590;2022-12-24T22:08:30;143.23;;;98.30;;
55015;SDS011;40919;43.236;21.590;2022-12-24T22:11:14;167.68;;;110.15;;
55015;SDS011;40919;43.236;21.590;2022-12-24T22:13:59;200.77;;;132.95;;
55015;SDS011;40919;43.236;21.590;2022-12-24T22:16:25;220.52;;;142.25;;
55015;SDS011;40919;43.236;21.590;2022-12-24T22:18:52;236.82;;;160.40;;
55015;SDS011;40919;43.236;21.590;2022-12-24T22:21:18;244.13;;;165.75;;
55015;SDS011;40919;43.236;21.590;2022-12-24T22:23:44;291.75;;;204.52;;
55015;SDS011;40919;43.236;21.590;2022-12-24T22:26:14;295.70;;;206.27;;
55015;SDS011;40919;43.236;21.590;2022-12-24T22:28:42;311.00;;;217.50;;
55015;SDS011;40919;43.236;21.590;2022-12-24T22:31:18;322.10;;;229.75;;
55015;SDS011;40919;43.236;21.590;2022-12-24T22:33:45;342.75;;;237.63;;
55015;SDS011;40919;43.236;21.590;2022-12-24T22:36:11;278.83;;;197.02;;
55015;SDS011;40919;43.236;21.590;2022-12-24T22:38:37;211.88;;;143.82;;
55015;SDS011;40919;43.236;21.590;2022-12-24T22:41:06;206.77;;;141.95;;
55015;SDS011;40919;43.236;21.590;2022-12-24T22:43:33;260.17;;;179.52;;
55015;SDS011;40919;43.236;21.590;2022-12-24T22:45:58;297.48;;;209.18;;
55015;SDS011;40919;43.236;21.590;2022-12-24T22:48:24;304.15;;;218.70;;
55015;SDS011;40919;43.236;21.590;2022-12-24T22:50:50;294.85;;;215.23;;
55015;SDS011;40919;43.236;21.590;2022-12-24T22:53:16;362.23;;;255.07;;
55015;SDS011;40919;43.236;21.590;2022-12-24T22:55:41;371.83;;;250.10;;
55015;SDS011;40919;43.236;21.590;2022-12-24T22:58:07;374.35;;;260.52;;
55015;SDS011;40919;43.236;21.590;2022-12-24T23:00:43;365.98;;;259.42;;
55015;SDS011;40919;43.236;21.590;2022-12-24T23:03:09;351.77;;;246.40;;
55015;SDS011;40919;43.236;21.590;2022-12-24T23:05:36;358.35;;;248.75;;
55015;SDS011;40919;43.236;21.590;2022-12-24T23:08:02;319.98;;;226.23;;
55015;SDS011;40919;43.236;21.590;2022-12-24T23:10:29;365.08;;;248.20;;
55015;SDS011;40919;43.236;21.590;2022-12-24T23:12:55;408.83;;;261.63;;
55015;SDS011;40919;43.236;21.590;2022-12-24T23:15:40;336.30;;;234.45;;
55015;SDS011;40919;43.236;21.590;2022-12-24T23:18:06;308.13;;;213.00;;
55015;SDS011;40919;43.236;21.590;2022-12-24T23:20:36;307.67;;;215.15;;
55015;SDS011;40919;43.236;21.590;2022-12-24T23:23:02;336.52;;;229.82;;
55015;SDS011;40919;43.236;21.590;2022-12-24T23:25:28;354.55;;;236.52;;
55015;SDS011;40919;43.236;21.590;2022-12-24T23:27:54;379.40;;;259.17;;
55015;SDS011;40919;43.236;21.590;2022-12-24T23:30:20;353.80;;;237.23;;
55015;SDS011;40919;43.236;21.590;2022-12-24T23:32:45;357.33;;;239.63;;
55015;SDS011;40919;43.236;21.590;2022-12-24T23:35:11;324.63;;;212.60;;
55015;SDS011;40919;43.236;21.590;2022-12-24T23:37:37;353.35;;;223.93;;
55015;SDS011;40919;43.236;21.590;2022-12-24T23:40:03;327.90;;;209.38;;
55015;SDS011;40919;43.236;21.590;2022-12-24T23:42:29;340.73;;;219.57;;
55015;SDS011;40919;43.236;21.590;2022-12-24T23:44:55;349.02;;;220.13;;
55015;SDS011;40919;43.236;21.590;2022-12-24T23:47:20;345.55;;;218.45;;
55015;SDS011;40919;43.236;21.590;2022-12-24T23:49:46;361.52;;;239.82;;
55015;SDS011;40919;43.236;21.590;2022-12-24T23:52:12;360.67;;;239.73;;
55015;SDS011;40919;43.236;21.590;2022-12-24T23:54:38;358.85;;;239.40;;
55015;SDS011;40919;43.236;21.590;2022-12-24T23:57:04;361.13;;;244.30;;
55015;SDS011;40919;43.236;21.590;2022-12-24T23:59:31;332.35;;;228.85;;
